Airfield :
LOGIN :

Register | Disclaimer

   EN    FR    IT 

 










Legend :    VFR   Marginal VFR   IFR   Intensive IFR   Very Intensive IFR
Visi :
Ceiling :
>= 8 km
>= 3000ft
5 to 8 km
1000 to 3000 ft
1500m to 5 km
500 to 1000 ft
800 to 1500m
200 to 500 ft
< 800m
< 200 ft
Symbols :   Thunderstorms  Fog  Heavy snow  Heavy precipitations  Wind > 20 kt
SIGMETs :     Misc.  Thunderstorms  Icing  Turbulence  Mountain Waves  Volcanic Ashes







- Airport Elevation : 1768 ft


LEHC - Huesca Pirineos

CURRENT METAR :
  • 211530Z 01001KT 9999 SCT045 25/14 Q1012

EXPIRED METARs :
  • 211500Z 08003KT 020V140 9999 SCT040 25/14 Q1013
  • 211430Z 08001KT 9999 SCT040 24/13 Q1013
  • 211400Z 11005KT 060V190 9999 SCT035 24/14 Q1013
  • 211330Z 07005KT 9999 SCT035 24/16 Q1013

TAF TAF LEHC
Valid from the 21 at 15:00 until the 22 at 15:00 UTC


211400Z 2115/2215 12010KT 9999 SCT040 TX24/2115Z TN15/2205Z
TEMPO 2115/2117 18007KT
PROB40
TEMPO 2115/2122 VRB10G20KT 4000 TSRA BKN020 SCT030CB
BECMG 2121/2123 08008KT
PROB30
TEMPO 2205/2212 RA BKN030
BECMG 2210/2212 28012KT
No reported NOTAMs for that airfield.



MET'MAP, your aeronautical weather chart ! - Copyright ORBIFLY December 2007 - Disclaimer

ORBIFLY MET'MAP TEAM :

Programming & Development : Alexandra Zaïnal
Concept & Development : Baudouin d'Aumeries
Co-Development & Prog : Marc-Olivier Méhu
Technical & hardware support : Manuel Goepfert

Contact : metmap@orbifly.com




SOURCES & CREDITS :

   NOAA